Pringle, SD (57773)

8:43 AM MST on February 13, 2016 (GMT -0700)
RAWS | | Change Station
CLOSE
Current Station
Personal Weather Station
Location: Pringle, SD
Elevation: 4110 ft
Nearby Weather Stations

Elev 4110 ft 43.56 °N, 103.49 °W | Updated 30 minutes ago

Mostly Cloudy
Mostly Cloudy
31.0 °F
Feels Like 31.0 °F
N
1.0
Wind Variable Wind from South
Gusts 3.0 mph

Today
High -- | Low -- °F
--% Chance of Precip.
Yesterday
High -- | Low -- °F
Precip. -- in
Pressure 30.06 in
Visibility 10.0 miles
Clouds Clear
Dew Point 30.0 °F
Humidity 97%
Rainfall in
Snow Depth Not available.
6:56 AM 5:21 PM
Waxing Crescent, 31% visible
METAR KCUT 131453Z AUTO 00000KT 10SM CLR 00/M02 A2997 RMK AO2 SLP177 T00001022 56010
Pressure 30.06 in
Visibility 10.0 miles
Clouds Clear
Dew Point 30.0 °F
Humidity 97%
Rainfall in
Snow Depth Not available.
6:56 AM 5:21 PM
Waxing Crescent, 31% visible
METAR KCUT 131453Z AUTO 00000KT 10SM CLR 00/M02 A2997 RMK AO2 SLP177 T00001022 56010

10-Day Weather Forecast

Almanac

Astronomy

Feb. 13, 2016 Rise Set
Actual Time
Civil Twilight
Nautical Twilight
Astronomical Twilight
Moon
Length of Visible Light
Length of Day
Tomorrow will be .
, % of the Moon is Illuminated

Today's Extremes

State Highs State Lows

Community

WunderPhotos

Upload Photos

1,892,587 photos uploaded!

WunderBlog® & News

Nearby

Air Quality

  Air Quality AQ Index Pollutant
Not available.

Snow Depth

Station Depth Elevation

Earthquake Activity

City Distance Mag. Time & Date
Minimum magnitude displayed is 2.5.

Coastal Water Temperatures

Place Temperature

Stations

Nearby Weather Stations

Station Location Temp. Windchill Dew Point Humidity Wind Precip. Elev Updated Type
                   

Watches & Warnings

There are currently no watches in effect.